sensor_id;sensor_type;location;lat;lon;timestamp;temperature;humidity
18506;DHT22;9382;53.242;10.438;2023-07-13T00:00:56;16.60;99.90
18506;DHT22;9382;53.242;10.438;2023-07-13T00:03:23;16.60;99.90
18506;DHT22;9382;53.242;10.438;2023-07-13T00:05:59;16.50;99.90
18506;DHT22;9382;53.242;10.438;2023-07-13T00:08:26;16.50;99.90
18506;DHT22;9382;53.242;10.438;2023-07-13T00:10:53;16.50;99.90
18506;DHT22;9382;53.242;10.438;2023-07-13T00:13:20;16.50;99.90
18506;DHT22;9382;53.242;10.438;2023-07-13T00:15:46;16.40;99.90
18506;DHT22;9382;53.242;10.438;2023-07-13T00:18:13;16.40;99.90
18506;DHT22;9382;53.242;10.438;2023-07-13T00:20:40;16.40;99.90
18506;DHT22;9382;53.242;10.438;2023-07-13T00:23:10;16.40;99.90
18506;DHT22;9382;53.242;10.438;2023-07-13T00:25:37;16.30;99.90
18506;DHT22;9382;53.242;10.438;2023-07-13T00:28:03;16.20;99.90
18506;DHT22;9382;53.242;10.438;2023-07-13T00:30:30;16.20;99.90
18506;DHT22;9382;53.242;10.438;2023-07-13T00:32:57;16.20;99.90
18506;DHT22;9382;53.242;10.438;2023-07-13T00:35:26;16.10;99.90
18506;DHT22;9382;53.242;10.438;2023-07-13T00:37:52;16.10;99.90
18506;DHT22;9382;53.242;10.438;2023-07-13T00:40:21;16.00;99.90
18506;DHT22;9382;53.242;10.438;2023-07-13T00:42:47;16.00;99.90
18506;DHT22;9382;53.242;10.438;2023-07-13T00:48:21;15.80;99.90
18506;DHT22;9382;53.242;10.438;2023-07-13T00:50:52;15.70;99.90
18506;DHT22;9382;53.242;10.438;2023-07-13T00:53:20;15.70;99.90
18506;DHT22;9382;53.242;10.438;2023-07-13T00:55:50;15.70;99.90
18506;DHT22;9382;53.242;10.438;2023-07-13T00:58:17;15.60;99.90
18506;DHT22;9382;53.242;10.438;2023-07-13T01:00:44;15.60;99.90
18506;DHT22;9382;53.242;10.438;2023-07-13T01:03:13;15.50;99.90
18506;DHT22;9382;53.242;10.438;2023-07-13T01:05:40;15.50;99.90
18506;DHT22;9382;53.242;10.438;2023-07-13T01:08:07;15.50;99.90
18506;DHT22;9382;53.242;10.438;2023-07-13T01:10:34;15.40;99.90
18506;DHT22;9382;53.242;10.438;2023-07-13T01:13:06;15.30;99.90
18506;DHT22;9382;53.242;10.438;2023-07-13T01:15:39;15.30;99.90
18506;DHT22;9382;53.242;10.438;2023-07-13T01:18:08;15.20;99.90
18506;DHT22;9382;53.242;10.438;2023-07-13T01:20:36;15.10;99.90
18506;DHT22;9382;53.242;10.438;2023-07-13T01:23:10;15.10;99.90
18506;DHT22;9382;53.242;10.438;2023-07-13T01:25:38;15.00;99.90
18506;DHT22;9382;53.242;10.438;2023-07-13T01:28:07;14.90;99.90
18506;DHT22;9382;53.242;10.438;2023-07-13T01:30:34;14.90;99.90
18506;DHT22;9382;53.242;10.438;2023-07-13T01:33:01;14.90;99.90
18506;DHT22;9382;53.242;10.438;2023-07-13T01:35:29;14.90;99.90
18506;DHT22;9382;53.242;10.438;2023-07-13T01:37:56;14.90;99.90
18506;DHT22;9382;53.242;10.438;2023-07-13T01:40:24;14.80;99.90
18506;DHT22;9382;53.242;10.438;2023-07-13T01:42:51;14.80;99.90
18506;DHT22;9382;53.242;10.438;2023-07-13T01:45:17;14.70;99.90
18506;DHT22;9382;53.242;10.438;2023-07-13T01:47:44;14.70;99.90
18506;DHT22;9382;53.242;10.438;2023-07-13T01:50:11;14.60;99.90
18506;DHT22;9382;53.242;10.438;2023-07-13T01:52:38;14.60;99.90
18506;DHT22;9382;53.242;10.438;2023-07-13T01:55:06;14.60;99.90
18506;DHT22;9382;53.242;10.438;2023-07-13T01:57:34;14.60;99.90
18506;DHT22;9382;53.242;10.438;2023-07-13T02:00:03;14.60;99.90
18506;DHT22;9382;53.242;10.438;2023-07-13T02:02:30;14.50;99.90
18506;DHT22;9382;53.242;10.438;2023-07-13T02:04:57;14.50;99.90
18506;DHT22;9382;53.242;10.438;2023-07-13T02:07:24;14.50;99.90
18506;DHT22;9382;53.242;10.438;2023-07-13T02:09:50;14.40;99.90
18506;DHT22;9382;53.242;10.438;2023-07-13T02:12:17;14.40;99.90
18506;DHT22;9382;53.242;10.438;2023-07-13T02:14:45;14.40;99.90
18506;DHT22;9382;53.242;10.438;2023-07-13T02:17:12;14.40;99.90
18506;DHT22;9382;53.242;10.438;2023-07-13T02:19:39;14.30;99.90
18506;DHT22;9382;53.242;10.438;2023-07-13T02:22:06;14.30;99.90
18506;DHT22;9382;53.242;10.438;2023-07-13T02:24:33;14.30;99.90
18506;DHT22;9382;53.242;10.438;2023-07-13T02:27:00;14.30;99.90
18506;DHT22;9382;53.242;10.438;2023-07-13T02:29:26;14.20;99.90
18506;DHT22;9382;53.242;10.438;2023-07-13T02:31:54;14.20;99.90
18506;DHT22;9382;53.242;10.438;2023-07-13T02:34:21;14.20;99.90
18506;DHT22;9382;53.242;10.438;2023-07-13T02:36:48;14.20;99.90
18506;DHT22;9382;53.242;10.438;2023-07-13T02:39:14;14.20;99.90
18506;DHT22;9382;53.242;10.438;2023-07-13T02:41:41;14.20;99.90
18506;DHT22;9382;53.242;10.438;2023-07-13T02:44:08;14.10;99.90
18506;DHT22;9382;53.242;10.438;2023-07-13T02:46:36;14.10;99.90
18506;DHT22;9382;53.242;10.438;2023-07-13T02:49:05;14.10;99.90
18506;DHT22;9382;53.242;10.438;2023-07-13T02:51:32;14.10;99.90
18506;DHT22;9382;53.242;10.438;2023-07-13T02:54:01;14.10;99.90
18506;DHT22;9382;53.242;10.438;2023-07-13T02:56:29;14.10;99.90
18506;DHT22;9382;53.242;10.438;2023-07-13T02:58:56;14.10;99.90
18506;DHT22;9382;53.242;10.438;2023-07-13T03:01:24;14.00;99.90
18506;DHT22;9382;53.242;10.438;2023-07-13T03:03:52;14.00;99.90
18506;DHT22;9382;53.242;10.438;2023-07-13T03:06:20;13.90;99.90
18506;DHT22;9382;53.242;10.438;2023-07-13T03:08:48;14.00;99.90
18506;DHT22;9382;53.242;10.438;2023-07-13T03:11:18;13.90;99.90
18506;DHT22;9382;53.242;10.438;2023-07-13T03:13:45;14.00;99.90
18506;DHT22;9382;53.242;10.438;2023-07-13T03:16:12;13.90;99.90
18506;DHT22;9382;53.242;10.438;2023-07-13T03:18:41;13.90;99.90
18506;DHT22;9382;53.242;10.438;2023-07-13T03:21:09;13.90;99.90
18506;DHT22;9382;53.242;10.438;2023-07-13T03:23:37;13.90;99.90
18506;DHT22;9382;53.242;10.438;2023-07-13T03:26:06;13.90;99.90
18506;DHT22;9382;53.242;10.438;2023-07-13T03:28:33;13.90;99.90
18506;DHT22;9382;53.242;10.438;2023-07-13T03:31:01;13.90;99.90
18506;DHT22;9382;53.242;10.438;2023-07-13T03:33:28;13.90;99.90
18506;DHT22;9382;53.242;10.438;2023-07-13T03:35:56;13.90;99.90
18506;DHT22;9382;53.242;10.438;2023-07-13T03:38:22;13.90;99.90
18506;DHT22;9382;53.242;10.438;2023-07-13T03:40:51;13.90;99.90
18506;DHT22;9382;53.242;10.438;2023-07-13T03:43:18;14.00;99.90
18506;DHT22;9382;53.242;10.438;2023-07-13T03:45:45;14.00;99.90
18506;DHT22;9382;53.242;10.438;2023-07-13T03:48:12;14.00;99.90
18506;DHT22;9382;53.242;10.438;2023-07-13T03:50:39;14.00;99.90
18506;DHT22;9382;53.242;10.438;2023-07-13T03:53:06;14.00;99.90
18506;DHT22;9382;53.242;10.438;2023-07-13T03:55:33;14.00;99.90
18506;DHT22;9382;53.242;10.438;2023-07-13T03:58:31;14.00;99.90
18506;DHT22;9382;53.242;10.438;2023-07-13T04:00:59;14.00;99.90
18506;DHT22;9382;53.242;10.438;2023-07-13T04:03:26;14.00;99.90
18506;DHT22;9382;53.242;10.438;2023-07-13T04:05:54;14.00;99.90
18506;DHT22;9382;53.242;10.438;2023-07-13T04:08:25;14.00;99.90
18506;DHT22;9382;53.242;10.438;2023-07-13T04:10:52;14.00;99.90
18506;DHT22;9382;53.242;10.438;2023-07-13T04:13:20;14.10;99.90
18506;DHT22;9382;53.242;10.438;2023-07-13T04:15:47;14.10;99.90
18506;DHT22;9382;53.242;10.438;2023-07-13T04:18:14;14.20;99.90
18506;DHT22;9382;53.242;10.438;2023-07-13T04:20:41;14.20;99.90
18506;DHT22;9382;53.242;10.438;2023-07-13T04:23:07;14.30;99.90
18506;DHT22;9382;53.242;10.438;2023-07-13T04:25:34;14.40;99.90
18506;DHT22;9382;53.242;10.438;2023-07-13T04:28:02;14.50;99.90
18506;DHT22;9382;53.242;10.438;2023-07-13T04:30:31;14.60;99.90
18506;DHT22;9382;53.242;10.438;2023-07-13T04:32:58;14.70;99.90
18506;DHT22;9382;53.242;10.438;2023-07-13T04:35:24;14.80;99.90
18506;DHT22;9382;53.242;10.438;2023-07-13T04:37:51;14.90;99.90
18506;DHT22;9382;53.242;10.438;2023-07-13T04:40:19;15.00;99.90
18506;DHT22;9382;53.242;10.438;2023-07-13T04:42:46;15.00;99.90
18506;DHT22;9382;53.242;10.438;2023-07-13T04:45:14;15.00;99.90
18506;DHT22;9382;53.242;10.438;2023-07-13T04:47:42;15.20;99.90
18506;DHT22;9382;53.242;10.438;2023-07-13T04:50:09;15.20;99.90
18506;DHT22;9382;53.242;10.438;2023-07-13T04:52:37;15.30;99.90
18506;DHT22;9382;53.242;10.438;2023-07-13T04:55:04;15.30;99.90
18506;DHT22;9382;53.242;10.438;2023-07-13T04:57:31;15.40;99.90
18506;DHT22;9382;53.242;10.438;2023-07-13T04:59:58;15.40;99.90
18506;DHT22;9382;53.242;10.438;2023-07-13T05:02:26;15.50;99.90
18506;DHT22;9382;53.242;10.438;2023-07-13T05:04:55;15.50;99.90
18506;DHT22;9382;53.242;10.438;2023-07-13T05:07:21;15.50;99.90
18506;DHT22;9382;53.242;10.438;2023-07-13T05:09:48;15.50;99.90
18506;DHT22;9382;53.242;10.438;2023-07-13T05:12:15;15.60;99.90
18506;DHT22;9382;53.242;10.438;2023-07-13T05:14:42;15.70;99.90
18506;DHT22;9382;53.242;10.438;2023-07-13T05:17:08;15.80;99.90
18506;DHT22;9382;53.242;10.438;2023-07-13T05:19:35;15.90;99.90
18506;DHT22;9382;53.242;10.438;2023-07-13T05:22:04;15.90;99.90
18506;DHT22;9382;53.242;10.438;2023-07-13T05:24:31;16.00;99.90
18506;DHT22;9382;53.242;10.438;2023-07-13T05:26:57;16.00;99.90
18506;DHT22;9382;53.242;10.438;2023-07-13T05:29:24;16.10;99.90
18506;DHT22;9382;53.242;10.438;2023-07-13T05:31:51;16.10;99.90
18506;DHT22;9382;53.242;10.438;2023-07-13T05:34:19;16.20;99.90
18506;DHT22;9382;53.242;10.438;2023-07-13T05:36:46;16.20;99.90
18506;DHT22;9382;53.242;10.438;2023-07-13T05:39:14;16.30;99.90
18506;DHT22;9382;53.242;10.438;2023-07-13T05:41:40;16.30;99.90
18506;DHT22;9382;53.242;10.438;2023-07-13T05:44:07;16.30;99.90
18506;DHT22;9382;53.242;10.438;2023-07-13T05:46:34;16.40;99.90
18506;DHT22;9382;53.242;10.438;2023-07-13T05:49:01;16.50;99.90
18506;DHT22;9382;53.242;10.438;2023-07-13T05:51:28;16.50;99.90
18506;DHT22;9382;53.242;10.438;2023-07-13T05:53:55;16.60;99.90
18506;DHT22;9382;53.242;10.438;2023-07-13T05:56:23;16.70;99.90
18506;DHT22;9382;53.242;10.438;2023-07-13T05:58:50;16.70;99.90
18506;DHT22;9382;53.242;10.438;2023-07-13T06:01:17;16.80;99.90
18506;DHT22;9382;53.242;10.438;2023-07-13T06:03:45;16.90;99.90
18506;DHT22;9382;53.242;10.438;2023-07-13T06:06:13;17.00;99.90
18506;DHT22;9382;53.242;10.438;2023-07-13T06:08:40;17.10;99.90
18506;DHT22;9382;53.242;10.438;2023-07-13T06:11:09;17.10;99.90
18506;DHT22;9382;53.242;10.438;2023-07-13T06:13:37;17.20;99.90
18506;DHT22;9382;53.242;10.438;2023-07-13T06:16:05;17.20;99.90
18506;DHT22;9382;53.242;10.438;2023-07-13T06:18:33;17.30;99.90
18506;DHT22;9382;53.242;10.438;2023-07-13T06:21:00;17.40;99.90
18506;DHT22;9382;53.242;10.438;2023-07-13T06:23:26;17.40;99.90
18506;DHT22;9382;53.242;10.438;2023-07-13T06:25:53;17.40;99.90
18506;DHT22;9382;53.242;10.438;2023-07-13T06:28:20;17.50;99.90
18506;DHT22;9382;53.242;10.438;2023-07-13T06:30:48;17.50;99.90
18506;DHT22;9382;53.242;10.438;2023-07-13T06:33:14;17.50;99.90
18506;DHT22;9382;53.242;10.438;2023-07-13T06:35:42;17.50;99.90
18506;DHT22;9382;53.242;10.438;2023-07-13T06:38:08;17.70;99.90
18506;DHT22;9382;53.242;10.438;2023-07-13T06:40:35;17.80;99.90
18506;DHT22;9382;53.242;10.438;2023-07-13T06:43:02;17.80;99.90
18506;DHT22;9382;53.242;10.438;2023-07-13T06:45:29;17.90;99.90
18506;DHT22;9382;53.242;10.438;2023-07-13T06:47:57;18.10;99.90
18506;DHT22;9382;53.242;10.438;2023-07-13T06:50:23;18.30;99.90
18506;DHT22;9382;53.242;10.438;2023-07-13T06:52:50;18.40;99.90
18506;DHT22;9382;53.242;10.438;2023-07-13T06:55:18;18.60;99.90
18506;DHT22;9382;53.242;10.438;2023-07-13T06:57:44;18.80;99.90
18506;DHT22;9382;53.242;10.438;2023-07-13T07:00:12;18.80;99.90
18506;DHT22;9382;53.242;10.438;2023-07-13T07:02:39;18.80;99.90
18506;DHT22;9382;53.242;10.438;2023-07-13T07:05:08;18.70;99.90
18506;DHT22;9382;53.242;10.438;2023-07-13T07:07:34;18.80;99.90
18506;DHT22;9382;53.242;10.438;2023-07-13T07:10:01;19.00;99.90
18506;DHT22;9382;53.242;10.438;2023-07-13T07:12:29;19.10;99.90
18506;DHT22;9382;53.242;10.438;2023-07-13T07:14:56;19.20;99.90
18506;DHT22;9382;53.242;10.438;2023-07-13T07:17:22;19.40;99.90
18506;DHT22;9382;53.242;10.438;2023-07-13T07:19:50;19.50;99.90
18506;DHT22;9382;53.242;10.438;2023-07-13T07:22:20;19.70;99.90
18506;DHT22;9382;53.242;10.438;2023-07-13T07:24:47;19.80;99.90
18506;DHT22;9382;53.242;10.438;2023-07-13T07:27:14;19.90;99.90
18506;DHT22;9382;53.242;10.438;2023-07-13T07:29:40;20.00;99.90
18506;DHT22;9382;53.242;10.438;2023-07-13T07:32:08;20.20;99.90
18506;DHT22;9382;53.242;10.438;2023-07-13T07:34:34;20.30;99.90
18506;DHT22;9382;53.242;10.438;2023-07-13T07:37:02;20.30;99.90
18506;DHT22;9382;53.242;10.438;2023-07-13T07:39:30;20.30;99.90
18506;DHT22;9382;53.242;10.438;2023-07-13T07:41:57;20.50;99.90
18506;DHT22;9382;53.242;10.438;2023-07-13T07:44:24;20.50;99.90
18506;DHT22;9382;53.242;10.438;2023-07-13T07:46:52;20.40;99.90
18506;DHT22;9382;53.242;10.438;2023-07-13T07:49:19;20.50;99.90
18506;DHT22;9382;53.242;10.438;2023-07-13T07:51:46;20.60;99.90
18506;DHT22;9382;53.242;10.438;2023-07-13T07:54:13;20.60;99.90
18506;DHT22;9382;53.242;10.438;2023-07-13T07:56:41;20.50;99.90
18506;DHT22;9382;53.242;10.438;2023-07-13T07:59:08;20.60;99.90
18506;DHT22;9382;53.242;10.438;2023-07-13T08:01:36;20.90;99.90
18506;DHT22;9382;53.242;10.438;2023-07-13T08:04:03;20.70;99.90
18506;DHT22;9382;53.242;10.438;2023-07-13T08:06:31;20.30;99.90
18506;DHT22;9382;53.242;10.438;2023-07-13T08:08:59;20.30;99.90
18506;DHT22;9382;53.242;10.438;2023-07-13T08:11:27;20.40;99.90
18506;DHT22;9382;53.242;10.438;2023-07-13T08:13:55;20.70;99.90
18506;DHT22;9382;53.242;10.438;2023-07-13T08:16:22;20.90;99.90
18506;DHT22;9382;53.242;10.438;2023-07-13T08:18:49;20.90;99.90
18506;DHT22;9382;53.242;10.438;2023-07-13T08:21:16;20.80;99.90
18506;DHT22;9382;53.242;10.438;2023-07-13T08:23:45;20.70;99.90
18506;DHT22;9382;53.242;10.438;2023-07-13T08:26:12;20.70;99.90
18506;DHT22;9382;53.242;10.438;2023-07-13T08:28:40;20.70;99.90
18506;DHT22;9382;53.242;10.438;2023-07-13T08:31:09;20.60;99.90
18506;DHT22;9382;53.242;10.438;2023-07-13T08:33:37;20.50;99.90
18506;DHT22;9382;53.242;10.438;2023-07-13T08:36:06;20.80;99.90
18506;DHT22;9382;53.242;10.438;2023-07-13T08:38:33;21.20;99.90
18506;DHT22;9382;53.242;10.438;2023-07-13T08:41:04;21.60;99.90
18506;DHT22;9382;53.242;10.438;2023-07-13T08:43:36;21.90;99.90
18506;DHT22;9382;53.242;10.438;2023-07-13T08:46:11;22.20;99.90
18506;DHT22;9382;53.242;10.438;2023-07-13T08:48:41;22.10;99.90
18506;DHT22;9382;53.242;10.438;2023-07-13T08:51:20;22.00;99.90
18506;DHT22;9382;53.242;10.438;2023-07-13T08:53:54;21.90;99.90
18506;DHT22;9382;53.242;10.438;2023-07-13T08:56:24;21.70;99.90
18506;DHT22;9382;53.242;10.438;2023-07-13T08:58:55;21.60;99.90
18506;DHT22;9382;53.242;10.438;2023-07-13T09:01:29;21.40;99.90
18506;DHT22;9382;53.242;10.438;2023-07-13T09:04:04;21.50;99.90
18506;DHT22;9382;53.242;10.438;2023-07-13T09:06:37;21.80;99.90
18506;DHT22;9382;53.242;10.438;2023-07-13T09:09:10;22.00;99.90
18506;DHT22;9382;53.242;10.438;2023-07-13T09:11:46;22.40;99.90
18506;DHT22;9382;53.242;10.438;2023-07-13T09:14:31;22.80;99.90
18506;DHT22;9382;53.242;10.438;2023-07-13T09:17:03;23.00;99.90
18506;DHT22;9382;53.242;10.438;2023-07-13T09:19:31;23.00;99.90
18506;DHT22;9382;53.242;10.438;2023-07-13T09:22:01;22.80;99.90
18506;DHT22;9382;53.242;10.438;2023-07-13T09:24:36;23.10;99.90
18506;DHT22;9382;53.242;10.438;2023-07-13T09:27:10;23.50;99.90
18506;DHT22;9382;53.242;10.438;2023-07-13T09:29:43;23.70;99.90
18506;DHT22;9382;53.242;10.438;2023-07-13T09:32:15;23.60;99.90
18506;DHT22;9382;53.242;10.438;2023-07-13T09:34:50;23.70;99.90
18506;DHT22;9382;53.242;10.438;2023-07-13T09:37:19;23.60;99.90
18506;DHT22;9382;53.242;10.438;2023-07-13T09:39:49;23.70;99.90
18506;DHT22;9382;53.242;10.438;2023-07-13T09:42:17;24.10;99.90
18506;DHT22;9382;53.242;10.438;2023-07-13T09:44:53;24.60;99.90
18506;DHT22;9382;53.242;10.438;2023-07-13T09:47:23;24.60;99.90
18506;DHT22;9382;53.242;10.438;2023-07-13T09:49:56;24.20;99.90
18506;DHT22;9382;53.242;10.438;2023-07-13T09:52:24;24.00;99.90
18506;DHT22;9382;53.242;10.438;2023-07-13T09:54:54;23.80;99.90
18506;DHT22;9382;53.242;10.438;2023-07-13T09:57:26;23.50;99.90
18506;DHT22;9382;53.242;10.438;2023-07-13T09:59:54;23.10;99.90
18506;DHT22;9382;53.242;10.438;2023-07-13T10:02:28;22.60;99.90
18506;DHT22;9382;53.242;10.438;2023-07-13T10:04:56;22.20;99.90
18506;DHT22;9382;53.242;10.438;2023-07-13T10:07:24;21.80;99.90
18506;DHT22;9382;53.242;10.438;2023-07-13T10:09:52;21.50;99.90
18506;DHT22;9382;53.242;10.438;2023-07-13T10:12:19;21.40;99.90
18506;DHT22;9382;53.242;10.438;2023-07-13T10:14:50;21.40;99.90
18506;DHT22;9382;53.242;10.438;2023-07-13T10:17:19;21.40;99.90
18506;DHT22;9382;53.242;10.438;2023-07-13T10:19:49;21.90;99.90
18506;DHT22;9382;53.242;10.438;2023-07-13T10:22:23;22.60;99.90
18506;DHT22;9382;53.242;10.438;2023-07-13T10:24:52;23.20;99.90
18506;DHT22;9382;53.242;10.438;2023-07-13T10:27:25;23.90;99.90
18506;DHT22;9382;53.242;10.438;2023-07-13T10:29:59;24.20;99.90
18506;DHT22;9382;53.242;10.438;2023-07-13T10:32:27;24.00;99.90
18506;DHT22;9382;53.242;10.438;2023-07-13T10:34:55;24.20;99.90
18506;DHT22;9382;53.242;10.438;2023-07-13T10:37:29;24.60;99.90
18506;DHT22;9382;53.242;10.438;2023-07-13T10:39:59;25.00;99.90
18506;DHT22;9382;53.242;10.438;2023-07-13T10:42:30;25.10;99.90
18506;DHT22;9382;53.242;10.438;2023-07-13T10:44:58;25.40;99.90
18506;DHT22;9382;53.242;10.438;2023-07-13T10:47:26;25.70;99.90
18506;DHT22;9382;53.242;10.438;2023-07-13T10:49:57;25.90;99.90
18506;DHT22;9382;53.242;10.438;2023-07-13T10:52:45;25.80;99.90
18506;DHT22;9382;53.242;10.438;2023-07-13T10:55:40;25.70;99.90
18506;DHT22;9382;53.242;10.438;2023-07-13T10:58:22;25.70;99.90
18506;DHT22;9382;53.242;10.438;2023-07-13T11:00:51;26.20;99.90
18506;DHT22;9382;53.242;10.438;2023-07-13T11:03:21;26.30;99.90
18506;DHT22;9382;53.242;10.438;2023-07-13T11:05:51;26.30;99.90
18506;DHT22;9382;53.242;10.438;2023-07-13T11:08:21;26.20;99.90
18506;DHT22;9382;53.242;10.438;2023-07-13T11:10:58;26.30;99.90
18506;DHT22;9382;53.242;10.438;2023-07-13T11:16:43;27.00;99.90
18506;DHT22;9382;53.242;10.438;2023-07-13T11:19:37;26.70;99.90
18506;DHT22;9382;53.242;10.438;2023-07-13T11:22:15;26.80;99.90
18506;DHT22;9382;53.242;10.438;2023-07-13T11:24:51;26.70;99.90
18506;DHT22;9382;53.242;10.438;2023-07-13T11:27:27;26.00;99.90
18506;DHT22;9382;53.242;10.438;2023-07-13T11:35:49;26.00;99.90
18506;DHT22;9382;53.242;10.438;2023-07-13T11:38:21;26.30;99.90
18506;DHT22;9382;53.242;10.438;2023-07-13T11:40:51;26.20;99.90
18506;DHT22;9382;53.242;10.438;2023-07-13T11:43:20;26.10;99.90
18506;DHT22;9382;53.242;10.438;2023-07-13T11:45:49;26.10;99.90
18506;DHT22;9382;53.242;10.438;2023-07-13T11:48:25;25.50;99.90
18506;DHT22;9382;53.242;10.438;2023-07-13T11:50:56;25.40;99.90
18506;DHT22;9382;53.242;10.438;2023-07-13T11:53:27;25.70;99.90
18506;DHT22;9382;53.242;10.438;2023-07-13T11:55:55;25.70;99.90
18506;DHT22;9382;53.242;10.438;2023-07-13T11:58:25;25.70;99.90
18506;DHT22;9382;53.242;10.438;2023-07-13T12:00:55;26.10;99.90
18506;DHT22;9382;53.242;10.438;2023-07-13T12:03:25;26.70;99.90
18506;DHT22;9382;53.242;10.438;2023-07-13T12:05:56;27.10;99.90
18506;DHT22;9382;53.242;10.438;2023-07-13T12:08:25;27.80;99.90
18506;DHT22;9382;53.242;10.438;2023-07-13T12:11:05;28.30;99.90
18506;DHT22;9382;53.242;10.438;2023-07-13T12:13:36;28.20;99.90
18506;DHT22;9382;53.242;10.438;2023-07-13T12:16:12;28.70;99.90
18506;DHT22;9382;53.242;10.438;2023-07-13T12:18:42;28.40;99.90
18506;DHT22;9382;53.242;10.438;2023-07-13T12:21:14;28.60;99.90
18506;DHT22;9382;53.242;10.438;2023-07-13T12:23:45;28.70;99.90
18506;DHT22;9382;53.242;10.438;2023-07-13T12:26:15;27.80;99.90
18506;DHT22;9382;53.242;10.438;2023-07-13T12:28:45;27.00;99.90
18506;DHT22;9382;53.242;10.438;2023-07-13T12:31:35;26.40;99.90
18506;DHT22;9382;53.242;10.438;2023-07-13T12:34:07;25.60;99.90
18506;DHT22;9382;53.242;10.438;2023-07-13T12:36:40;25.20;99.90
18506;DHT22;9382;53.242;10.438;2023-07-13T12:39:16;24.90;99.90
18506;DHT22;9382;53.242;10.438;2023-07-13T12:41:44;24.80;99.90
18506;DHT22;9382;53.242;10.438;2023-07-13T12:44:13;24.40;99.90
18506;DHT22;9382;53.242;10.438;2023-07-13T12:46:52;24.20;99.90
18506;DHT22;9382;53.242;10.438;2023-07-13T12:49:23;23.70;99.90
18506;DHT22;9382;53.242;10.438;2023-07-13T12:51:50;23.30;99.90
18506;DHT22;9382;53.242;10.438;2023-07-13T12:54:19;23.10;99.90
18506;DHT22;9382;53.242;10.438;2023-07-13T12:56:49;22.80;99.90
18506;DHT22;9382;53.242;10.438;2023-07-13T12:59:19;22.60;99.90
18506;DHT22;9382;53.242;10.438;2023-07-13T13:01:49;22.40;99.90
18506;DHT22;9382;53.242;10.438;2023-07-13T13:04:16;22.20;99.90
18506;DHT22;9382;53.242;10.438;2023-07-13T13:06:47;21.90;99.90
18506;DHT22;9382;53.242;10.438;2023-07-13T13:09:15;21.00;99.90
18506;DHT22;9382;53.242;10.438;2023-07-13T13:11:45;20.30;99.90
18506;DHT22;9382;53.242;10.438;2023-07-13T13:14:12;19.70;99.90
18506;DHT22;9382;53.242;10.438;2023-07-13T13:16:46;19.20;99.90
18506;DHT22;9382;53.242;10.438;2023-07-13T13:19:16;18.50;99.90
18506;DHT22;9382;53.242;10.438;2023-07-13T13:21:44;18.20;99.90
18506;DHT22;9382;53.242;10.438;2023-07-13T13:24:12;18.10;99.90
18506;DHT22;9382;53.242;10.438;2023-07-13T13:26:39;17.80;99.90
18506;DHT22;9382;53.242;10.438;2023-07-13T13:29:12;17.70;99.90
18506;DHT22;9382;53.242;10.438;2023-07-13T13:31:40;17.90;99.90
18506;DHT22;9382;53.242;10.438;2023-07-13T13:34:09;18.20;99.90
18506;DHT22;9382;53.242;10.438;2023-07-13T13:36:36;18.70;99.90
18506;DHT22;9382;53.242;10.438;2023-07-13T13:39:04;19.00;99.90
18506;DHT22;9382;53.242;10.438;2023-07-13T13:41:32;19.30;99.90
18506;DHT22;9382;53.242;10.438;2023-07-13T13:43:58;19.50;99.90
18506;DHT22;9382;53.242;10.438;2023-07-13T13:46:26;19.60;99.90
18506;DHT22;9382;53.242;10.438;2023-07-13T13:48:55;19.70;99.90
18506;DHT22;9382;53.242;10.438;2023-07-13T13:51:23;20.30;99.90
18506;DHT22;9382;53.242;10.438;2023-07-13T13:53:50;20.70;99.90
18506;DHT22;9382;53.242;10.438;2023-07-13T13:56:19;20.90;99.90
18506;DHT22;9382;53.242;10.438;2023-07-13T13:58:46;20.80;99.90
18506;DHT22;9382;53.242;10.438;2023-07-13T14:01:16;20.60;99.90
18506;DHT22;9382;53.242;10.438;2023-07-13T14:03:45;20.30;99.90
18506;DHT22;9382;53.242;10.438;2023-07-13T14:06:14;20.00;99.90
18506;DHT22;9382;53.242;10.438;2023-07-13T14:08:42;19.80;99.90
18506;DHT22;9382;53.242;10.438;2023-07-13T14:11:11;19.70;99.90
18506;DHT22;9382;53.242;10.438;2023-07-13T14:13:41;19.60;99.90
18506;DHT22;9382;53.242;10.438;2023-07-13T14:16:11;19.40;99.90
18506;DHT22;9382;53.242;10.438;2023-07-13T14:18:38;19.30;99.90
18506;DHT22;9382;53.242;10.438;2023-07-13T14:21:11;19.30;99.90
18506;DHT22;9382;53.242;10.438;2023-07-13T14:23:39;19.30;99.90
18506;DHT22;9382;53.242;10.438;2023-07-13T14:26:10;19.40;99.90
18506;DHT22;9382;53.242;10.438;2023-07-13T14:28:40;19.40;99.90
18506;DHT22;9382;53.242;10.438;2023-07-13T14:31:07;19.50;99.90
18506;DHT22;9382;53.242;10.438;2023-07-13T14:33:34;19.40;99.90
18506;DHT22;9382;53.242;10.438;2023-07-13T14:36:02;19.60;99.90
18506;DHT22;9382;53.242;10.438;2023-07-13T14:38:30;19.50;99.90
18506;DHT22;9382;53.242;10.438;2023-07-13T14:40:57;19.50;99.90
18506;DHT22;9382;53.242;10.438;2023-07-13T14:43:24;19.60;99.90
18506;DHT22;9382;53.242;10.438;2023-07-13T14:45:53;19.60;99.90
18506;DHT22;9382;53.242;10.438;2023-07-13T14:48:22;19.50;99.90
18506;DHT22;9382;53.242;10.438;2023-07-13T14:50:53;19.20;99.90
18506;DHT22;9382;53.242;10.438;2023-07-13T14:53:21;19.10;99.90
18506;DHT22;9382;53.242;10.438;2023-07-13T14:55:49;19.00;99.90
18506;DHT22;9382;53.242;10.438;2023-07-13T14:58:16;19.00;99.90
18506;DHT22;9382;53.242;10.438;2023-07-13T15:00:43;19.00;99.90
18506;DHT22;9382;53.242;10.438;2023-07-13T15:03:18;18.90;99.90
18506;DHT22;9382;53.242;10.438;2023-07-13T15:05:46;19.00;99.90
18506;DHT22;9382;53.242;10.438;2023-07-13T15:08:15;19.00;99.90
18506;DHT22;9382;53.242;10.438;2023-07-13T15:10:42;19.10;99.90
18506;DHT22;9382;53.242;10.438;2023-07-13T15:13:18;19.10;99.90
18506;DHT22;9382;53.242;10.438;2023-07-13T15:15:48;19.30;99.90
18506;DHT22;9382;53.242;10.438;2023-07-13T15:18:18;19.50;99.90
18506;DHT22;9382;53.242;10.438;2023-07-13T15:20:46;19.50;99.90
18506;DHT22;9382;53.242;10.438;2023-07-13T15:23:14;19.60;99.90
18506;DHT22;9382;53.242;10.438;2023-07-13T15:25:42;19.70;99.90
18506;DHT22;9382;53.242;10.438;2023-07-13T15:28:10;19.60;99.90
18506;DHT22;9382;53.242;10.438;2023-07-13T15:30:42;19.60;99.90
18506;DHT22;9382;53.242;10.438;2023-07-13T15:33:13;19.60;99.90
18506;DHT22;9382;53.242;10.438;2023-07-13T15:35:42;19.60;99.90
18506;DHT22;9382;53.242;10.438;2023-07-13T15:38:14;19.70;99.90
18506;DHT22;9382;53.242;10.438;2023-07-13T15:40:41;19.60;99.90
18506;DHT22;9382;53.242;10.438;2023-07-13T15:43:10;19.90;99.90
18506;DHT22;9382;53.242;10.438;2023-07-13T15:45:40;20.30;99.90
18506;DHT22;9382;53.242;10.438;2023-07-13T15:48:16;20.40;99.90
18506;DHT22;9382;53.242;10.438;2023-07-13T15:50:45;20.60;99.90
18506;DHT22;9382;53.242;10.438;2023-07-13T15:53:14;20.80;99.90